createdAt,value
2019-03-03T00:01:17.317Z,-83
2019-03-03T00:03:45.096Z,-84
2019-03-03T00:06:12.877Z,-83
2019-03-03T00:08:40.654Z,-84
2019-03-03T00:11:08.430Z,-85
2019-03-03T00:13:36.535Z,-88
2019-03-03T00:16:04.420Z,-85
2019-03-03T00:18:32.182Z,-86
2019-03-03T00:20:59.956Z,-85
2019-03-03T00:23:27.740Z,-82
2019-03-03T00:25:56.337Z,-82
2019-03-03T00:28:24.079Z,-87
2019-03-03T00:30:51.839Z,-83
2019-03-03T00:33:19.560Z,-82
2019-03-03T00:35:47.344Z,-81
2019-03-03T00:38:28.442Z,-81
2019-03-03T00:41:17.358Z,-85
2019-03-03T00:44:10.749Z,-82
2019-03-03T00:46:45.749Z,-83
2019-03-03T00:49:31.771Z,-83
2019-03-03T00:52:14.288Z,-83
2019-03-03T00:54:53.437Z,-83
2019-03-03T00:57:49.491Z,-82
2019-03-03T01:00:43.524Z,-82
2019-03-03T01:03:30.186Z,-86
2019-03-03T01:06:23.411Z,-82
2019-03-03T01:09:00.524Z,-83
2019-03-03T01:11:58.857Z,-85
2019-03-03T01:15:04.138Z,-83
2019-03-03T01:17:49.427Z,-84
2019-03-03T01:20:22.956Z,-83
2019-03-03T01:23:10.067Z,-86
2019-03-03T01:25:37.839Z,-84
2019-03-03T01:28:06.103Z,-87
2019-03-03T01:30:33.890Z,-88
2019-03-03T01:33:01.642Z,-85
2019-03-03T01:35:29.375Z,-87
2019-03-03T01:37:57.116Z,-83
2019-03-03T01:40:25.674Z,-82
2019-03-03T01:42:53.608Z,-86
2019-03-03T01:45:21.381Z,-83
2019-03-03T01:47:49.140Z,-84
2019-03-03T01:50:16.883Z,-86
2019-03-03T01:52:44.644Z,-85
2019-03-03T01:55:12.603Z,-84
2019-03-03T01:57:40.402Z,-85
2019-03-03T02:00:21.653Z,-84
2019-03-03T02:02:49.576Z,-85
2019-03-03T02:05:17.845Z,-86
2019-03-03T02:07:45.610Z,-84
2019-03-03T02:10:14.060Z,-82
2019-03-03T02:12:41.829Z,-84
2019-03-03T02:15:10.370Z,-82
2019-03-03T02:17:38.096Z,-84
2019-03-03T02:20:06.274Z,-86
2019-03-03T02:22:34.036Z,-82
2019-03-03T02:25:01.824Z,-86
2019-03-03T02:27:29.579Z,-87
2019-03-03T02:29:57.348Z,-85
2019-03-03T02:32:25.122Z,-84
2019-03-03T02:34:52.864Z,-86
2019-03-03T02:37:20.629Z,-86
2019-03-03T02:39:48.377Z,-88
2019-03-03T02:42:17.022Z,-86
2019-03-03T02:44:45.471Z,-82
2019-03-03T02:47:13.221Z,-85
2019-03-03T02:49:40.986Z,-84
2019-03-03T02:52:08.746Z,-84
2019-03-03T02:54:36.515Z,-84
2019-03-03T02:57:04.242Z,-81
2019-03-03T02:59:32.088Z,-82
2019-03-03T03:02:01.475Z,-83
2019-03-03T03:04:30.522Z,-83
2019-03-03T03:07:10.337Z,-82
2019-03-03T03:10:03.432Z,-83
2019-03-03T03:13:02.777Z,-83
2019-03-03T03:15:56.383Z,-82
2019-03-03T03:18:43.751Z,-84
2019-03-03T03:21:19.167Z,-85
2019-03-03T03:24:06.557Z,-84
2019-03-03T03:26:53.935Z,-84
2019-03-03T03:29:39.631Z,-87
2019-03-03T03:32:21.924Z,-86
2019-03-03T03:35:09.271Z,-83
2019-03-03T03:37:42.001Z,-84
2019-03-03T03:40:29.050Z,-81
2019-03-03T03:43:12.558Z,-81
2019-03-03T03:46:02.779Z,-81
2019-03-03T03:48:59.049Z,-83
2019-03-03T03:51:55.429Z,-84
2019-03-03T03:54:48.894Z,-82
2019-03-03T03:57:23.712Z,-81
2019-03-03T04:00:16.845Z,-81
2019-03-03T04:03:03.229Z,-72
2019-03-03T04:05:50.195Z,-70
2019-03-03T04:08:37.586Z,-70
2019-03-03T04:11:27.722Z,-70
2019-03-03T04:14:05.000Z,-70
2019-03-03T04:16:52.346Z,-71
2019-03-03T04:19:38.152Z,-72
2019-03-03T04:22:24.265Z,-70
2019-03-03T04:25:23.224Z,-70
2019-03-03T04:27:56.971Z,-71
2019-03-03T04:30:32.619Z,-70
2019-03-03T04:33:17.944Z,-71
2019-03-03T04:35:51.268Z,-71
2019-03-03T04:38:28.668Z,-71
2019-03-03T04:41:14.649Z,-71
2019-03-03T04:44:00.815Z,-71
2019-03-03T04:46:51.180Z,-71
2019-03-03T04:49:32.879Z,-70
2019-03-03T04:52:18.330Z,-73
2019-03-03T04:54:57.539Z,-70
2019-03-03T04:57:43.513Z,-71
2019-03-03T05:00:29.401Z,-72
2019-03-03T05:03:08.049Z,-70
2019-03-03T05:05:48.012Z,-70
2019-03-03T05:08:20.565Z,-71
2019-03-03T05:11:06.495Z,-71
2019-03-03T05:13:47.964Z,-71
2019-03-03T05:16:35.533Z,-71
2019-03-03T05:19:24.035Z,-71
2019-03-03T05:21:51.795Z,-71
2019-03-03T05:24:19.566Z,-69
2019-03-03T05:26:47.400Z,-71
2019-03-03T05:29:15.133Z,-69
2019-03-03T05:31:42.881Z,-71
2019-03-03T05:34:10.663Z,-71
2019-03-03T05:36:38.413Z,-72
2019-03-03T05:39:06.481Z,-70
2019-03-03T05:41:34.218Z,-71
2019-03-03T05:44:02.006Z,-71
2019-03-03T05:46:29.758Z,-70
2019-03-03T05:48:57.519Z,-70
2019-03-03T05:51:25.279Z,-71
2019-03-03T05:53:53.022Z,-71
2019-03-03T05:56:20.794Z,-71
2019-03-03T05:58:48.740Z,-71
2019-03-03T06:01:16.500Z,-71
2019-03-03T06:03:44.264Z,-70
2019-03-03T06:06:12.034Z,-72
2019-03-03T06:08:40.086Z,-71
2019-03-03T06:11:07.874Z,-73
2019-03-03T06:13:35.608Z,-72
2019-03-03T06:16:03.410Z,-72
2019-03-03T06:18:31.380Z,-70
2019-03-03T06:20:59.176Z,-70
2019-03-03T06:23:26.932Z,-71
2019-03-03T06:25:54.711Z,-70
2019-03-03T06:28:22.472Z,-71
2019-03-03T06:30:50.240Z,-71
2019-03-03T06:33:18.008Z,-72
2019-03-03T06:35:45.816Z,-70
2019-03-03T06:38:13.565Z,-71
2019-03-03T06:40:41.416Z,-70
2019-03-03T06:43:09.212Z,-69
2019-03-03T06:45:36.997Z,-71
2019-03-03T06:48:04.749Z,-70
2019-03-03T06:50:32.541Z,-71
2019-03-03T06:53:00.292Z,-70
2019-03-03T06:55:28.044Z,-71
2019-03-03T06:57:55.804Z,-71
2019-03-03T07:00:23.814Z,-70
2019-03-03T07:02:51.633Z,-71
2019-03-03T07:05:19.405Z,-71
2019-03-03T07:07:47.151Z,-72
2019-03-03T07:10:14.902Z,-72
2019-03-03T07:12:42.667Z,-71
2019-03-03T07:15:13.162Z,-72
2019-03-03T07:17:40.920Z,-71
2019-03-03T07:20:09.771Z,-71
2019-03-03T07:22:37.574Z,-73
2019-03-03T07:25:07.403Z,-70
2019-03-03T07:27:35.182Z,-72
2019-03-03T07:30:03.547Z,-72
2019-03-03T07:32:32.839Z,-70
2019-03-03T07:35:00.896Z,-70
2019-03-03T07:37:28.693Z,-71
2019-03-03T07:39:56.425Z,-70
2019-03-03T07:42:24.230Z,-72
2019-03-03T07:44:52.004Z,-71
2019-03-03T07:47:19.804Z,-73
2019-03-03T07:49:47.564Z,-70
2019-03-03T07:52:15.299Z,-72
2019-03-03T07:54:43.039Z,-71
2019-03-03T07:57:10.825Z,-72
2019-03-03T07:59:38.901Z,-70
2019-03-03T08:02:06.691Z,-71
2019-03-03T08:04:34.477Z,-72
2019-03-03T08:07:02.342Z,-71
2019-03-03T08:09:30.152Z,-73
2019-03-03T08:11:57.942Z,-75
2019-03-03T08:14:25.738Z,-74
2019-03-03T08:16:53.497Z,-76
2019-03-03T08:19:21.272Z,-76
2019-03-03T08:21:49.040Z,-75
2019-03-03T08:24:16.777Z,-76
2019-03-03T08:26:44.536Z,-74
2019-03-03T08:29:12.293Z,-76
2019-03-03T08:31:40.069Z,-75
2019-03-03T08:34:08.075Z,-76
2019-03-03T08:36:35.823Z,-75
2019-03-03T08:39:05.577Z,-78
2019-03-03T08:41:34.945Z,-75
2019-03-03T08:44:06.572Z,-74
2019-03-03T08:46:52.568Z,-77
2019-03-03T08:49:38.105Z,-76
2019-03-03T08:52:11.364Z,-76
2019-03-03T08:55:04.501Z,-76
2019-03-03T08:57:38.181Z,-76
2019-03-03T09:00:28.121Z,-76
2019-03-03T09:03:06.370Z,-76
2019-03-03T09:05:40.373Z,-79
2019-03-03T09:08:27.829Z,-76
2019-03-03T09:11:13.663Z,-78
2019-03-03T09:13:59.677Z,-74
2019-03-03T09:16:48.382Z,-73
2019-03-03T09:19:42.012Z,-74
2019-03-03T09:22:22.422Z,-72
2019-03-03T09:25:09.782Z,-71
2019-03-03T09:28:00.260Z,-72
2019-03-03T09:30:40.786Z,-72
2019-03-03T09:33:45.871Z,-75
2019-03-03T09:36:31.677Z,-74
2019-03-03T09:39:17.668Z,-74
2019-03-03T09:42:14.061Z,-75
2019-03-03T09:45:13.404Z,-73
2019-03-03T09:48:03.567Z,-73
2019-03-03T09:50:53.776Z,-74
2019-03-03T09:53:51.017Z,-73
2019-03-03T09:56:25.219Z,-72
2019-03-03T09:59:09.799Z,-71
2019-03-03T10:01:53.092Z,-73
2019-03-03T10:04:38.903Z,-74
2019-03-03T10:07:38.456Z,-74
2019-03-03T10:10:18.568Z,-73
2019-03-03T10:13:10.256Z,-72
2019-03-03T10:15:48.820Z,-72
2019-03-03T10:18:25.977Z,-74
2019-03-03T10:21:16.137Z,-74
2019-03-03T10:23:52.015Z,-71
2019-03-03T10:26:27.192Z,-71
2019-03-03T10:29:08.926Z,-72
2019-03-03T10:31:55.083Z,-71
2019-03-03T10:34:34.890Z,-72
2019-03-03T10:37:18.569Z,-73
2019-03-03T10:39:56.007Z,-76
2019-03-03T10:42:29.231Z,-75
2019-03-03T10:45:18.570Z,-72
2019-03-03T10:48:06.836Z,-72
2019-03-03T10:50:52.391Z,-72
2019-03-03T10:53:35.827Z,-70
2019-03-03T10:56:13.917Z,-71
2019-03-03T10:58:59.749Z,-71
2019-03-03T11:01:41.775Z,-72
2019-03-03T11:04:27.923Z,-72
2019-03-03T11:07:08.060Z,-72
2019-03-03T11:09:58.242Z,-73
2019-03-03T11:12:54.469Z,-72
2019-03-03T11:15:59.885Z,-73
2019-03-03T11:18:55.907Z,-73
2019-03-03T11:21:46.898Z,-72
2019-03-03T11:24:31.690Z,-72
2019-03-03T11:27:21.754Z,-71
2019-03-03T11:29:58.232Z,-71
2019-03-03T11:32:57.183Z,-72
2019-03-03T11:35:41.944Z,-72
2019-03-03T11:38:35.258Z,-71
2019-03-03T11:41:18.289Z,-71
2019-03-03T11:43:54.016Z,-71
2019-03-03T11:46:34.307Z,-72
2019-03-03T11:49:17.494Z,-74
2019-03-03T11:52:07.677Z,-73
2019-03-03T11:54:45.054Z,-75
2019-03-03T11:57:21.834Z,-70
2019-03-03T12:00:01.772Z,-71
2019-03-03T12:02:40.977Z,-72
2019-03-03T12:05:27.850Z,-71
2019-03-03T12:08:13.808Z,-74
2019-03-03T12:11:09.918Z,-72
2019-03-03T12:13:52.154Z,-71
2019-03-03T12:16:53.813Z,-72
2019-03-03T12:19:35.605Z,-72
2019-03-03T12:22:25.241Z,-70
2019-03-03T12:25:12.928Z,-72
2019-03-03T12:28:03.842Z,-74
2019-03-03T12:30:47.622Z,-73
2019-03-03T12:33:27.370Z,-72
2019-03-03T12:36:12.030Z,-71
2019-03-03T12:39:06.359Z,-72
2019-03-03T12:41:56.919Z,-74
2019-03-03T12:44:31.138Z,-70
2019-03-03T12:47:27.460Z,-71
2019-03-03T12:50:13.297Z,-72
2019-03-03T12:52:58.651Z,-72
2019-03-03T12:55:44.424Z,-71
2019-03-03T12:58:31.442Z,-73
2019-03-03T13:01:14.806Z,-71
2019-03-03T13:03:56.074Z,-73
2019-03-03T13:06:40.340Z,-71
2019-03-03T13:09:26.236Z,-72
2019-03-03T13:12:13.688Z,-70
2019-03-03T13:15:06.783Z,-73
2019-03-03T13:17:48.506Z,-72
2019-03-03T13:20:40.894Z,-70
2019-03-03T13:23:15.739Z,-70
2019-03-03T13:25:56.217Z,-70
2019-03-03T13:29:01.278Z,-71
2019-03-03T13:31:47.068Z,-73
2019-03-03T13:34:37.700Z,-72
2019-03-03T13:37:25.730Z,-71
2019-03-03T13:40:15.936Z,-70
2019-03-03T13:42:58.704Z,-71
2019-03-03T13:45:34.165Z,-72
2019-03-03T13:48:02.183Z,-71
2019-03-03T13:50:30.165Z,-71
2019-03-03T13:52:57.935Z,-71
2019-03-03T13:55:25.689Z,-70
2019-03-03T13:57:53.588Z,-70
2019-03-03T14:00:21.973Z,-70
2019-03-03T14:02:50.174Z,-73
2019-03-03T14:05:20.466Z,-72
2019-03-03T14:07:48.611Z,-71
2019-03-03T14:10:16.577Z,-72
2019-03-03T14:12:44.501Z,-71
2019-03-03T14:15:13.593Z,-73
2019-03-03T14:17:41.337Z,-74
2019-03-03T14:20:14.154Z,-73
2019-03-03T14:22:42.182Z,-71
2019-03-03T14:25:10.319Z,-72
2019-03-03T14:27:38.235Z,-75
2019-03-03T14:30:10.876Z,-75
2019-03-03T14:32:38.711Z,-73
2019-03-03T14:35:08.189Z,-72
2019-03-03T14:37:35.973Z,-73
2019-03-03T14:40:04.759Z,-73
2019-03-03T14:42:32.589Z,-73
2019-03-03T14:45:00.451Z,-72
2019-03-03T14:47:28.389Z,-73
2019-03-03T14:49:56.322Z,-73
2019-03-03T14:52:24.177Z,-72
2019-03-03T14:54:51.960Z,-75
2019-03-03T14:57:19.728Z,-72
2019-03-03T14:59:47.500Z,-74
2019-03-03T15:02:15.248Z,-74
2019-03-03T15:04:42.960Z,-70
2019-03-03T15:07:10.980Z,-72
2019-03-03T15:09:38.785Z,-80
2019-03-03T15:12:06.531Z,-72
2019-03-03T15:14:34.295Z,-70
2019-03-03T15:17:02.043Z,-71
2019-03-03T15:19:29.847Z,-70
2019-03-03T15:21:57.623Z,-72
2019-03-03T15:24:25.376Z,-71
2019-03-03T15:26:53.127Z,-74
2019-03-03T15:29:20.904Z,-71
2019-03-03T15:31:48.689Z,-71
2019-03-03T15:34:16.475Z,-71
2019-03-03T15:36:44.278Z,-72
2019-03-03T15:39:12.141Z,-70
2019-03-03T15:41:39.941Z,-73
2019-03-03T15:44:07.809Z,-72
2019-03-03T15:46:35.578Z,-73
2019-03-03T15:49:03.681Z,-72
2019-03-03T15:51:31.441Z,-72
2019-03-03T15:53:59.235Z,-74
2019-03-03T15:56:26.969Z,-74
2019-03-03T15:58:55.849Z,-73
2019-03-03T16:01:23.818Z,-73
2019-03-03T16:03:51.946Z,-72
2019-03-03T16:06:19.710Z,-74
2019-03-03T16:08:47.495Z,-72
2019-03-03T16:11:15.226Z,-70
2019-03-03T16:13:43.013Z,-74
2019-03-03T16:16:11.050Z,-70
2019-03-03T16:18:38.820Z,-71
2019-03-03T16:21:06.598Z,-73
2019-03-03T16:23:34.373Z,-73
2019-03-03T16:26:02.110Z,-73
2019-03-03T16:28:29.875Z,-72
2019-03-03T16:30:57.663Z,-74
2019-03-03T16:33:25.612Z,-72
2019-03-03T16:35:53.395Z,-73
2019-03-03T16:38:21.190Z,-73
2019-03-03T16:40:48.978Z,-72
2019-03-03T16:43:16.715Z,-72
2019-03-03T16:45:44.545Z,-73
2019-03-03T16:48:12.319Z,-73
2019-03-03T16:51:25.219Z,-72
2019-03-03T16:53:52.993Z,-73
2019-03-03T16:56:20.810Z,-73
2019-03-03T16:58:48.666Z,-72
2019-03-03T17:01:16.627Z,-74
2019-03-03T17:03:44.429Z,-72
2019-03-03T17:06:12.249Z,-72
2019-03-03T17:08:42.047Z,-73
2019-03-03T17:11:12.390Z,-74
2019-03-03T17:13:52.441Z,-72
2019-03-03T17:16:20.321Z,-73
2019-03-03T17:18:48.111Z,-75
2019-03-03T17:21:15.933Z,-73
2019-03-03T17:23:45.303Z,-71
2019-03-03T17:26:13.485Z,-72
2019-03-03T17:28:41.552Z,-73
2019-03-03T17:31:09.667Z,-72
2019-03-03T17:33:37.689Z,-74
2019-03-03T17:36:05.480Z,-75
2019-03-03T17:38:33.243Z,-75
2019-03-03T17:41:01.104Z,-74
2019-03-03T17:43:31.062Z,-73
2019-03-03T17:45:58.876Z,-74
2019-03-03T17:48:26.967Z,-73
2019-03-03T17:50:55.192Z,-72
2019-03-03T17:53:24.082Z,-74
2019-03-03T17:55:54.251Z,-75
2019-03-03T17:58:22.736Z,-74
2019-03-03T18:00:50.777Z,-74
2019-03-03T18:03:18.781Z,-72
2019-03-03T18:05:46.623Z,-72
2019-03-03T18:08:14.416Z,-74
2019-03-03T18:10:42.242Z,-76
2019-03-03T18:13:13.344Z,-76
2019-03-03T18:15:41.134Z,-76
2019-03-03T18:18:08.872Z,-77
2019-03-03T18:20:36.687Z,-76
2019-03-03T18:23:06.028Z,-78
2019-03-03T18:25:33.824Z,-75
2019-03-03T18:28:01.645Z,-77
2019-03-03T18:30:29.489Z,-77
2019-03-03T18:32:57.293Z,-76
2019-03-03T18:35:25.197Z,-75
2019-03-03T18:37:52.981Z,-77
2019-03-03T18:40:20.871Z,-78
2019-03-03T18:42:48.659Z,-76
2019-03-03T18:45:16.740Z,-77
2019-03-03T18:47:44.577Z,-77
2019-03-03T18:50:14.608Z,-75
2019-03-03T18:52:42.439Z,-76
2019-03-03T18:55:10.283Z,-78
2019-03-03T18:57:38.431Z,-75
2019-03-03T19:00:11.089Z,-77
2019-03-03T19:02:38.844Z,-76
2019-03-03T19:05:07.071Z,-77
2019-03-03T19:07:34.950Z,-77
2019-03-03T19:10:02.814Z,-78
2019-03-03T19:12:31.310Z,-79
2019-03-03T19:14:59.096Z,-79
2019-03-03T19:17:26.883Z,-76
2019-03-03T19:19:58.138Z,-76
2019-03-03T19:22:25.903Z,-75
2019-03-03T19:24:53.766Z,-78
2019-03-03T19:27:21.572Z,-78
2019-03-03T19:29:49.408Z,-79
2019-03-03T19:32:17.304Z,-76
2019-03-03T19:34:45.114Z,-78
2019-03-03T19:37:14.625Z,-75
2019-03-03T19:39:42.449Z,-76
2019-03-03T19:42:10.657Z,-78
2019-03-03T19:44:38.432Z,-75
2019-03-03T19:47:06.346Z,-75
2019-03-03T19:49:34.222Z,-78
2019-03-03T19:52:02.038Z,-77
2019-03-03T19:54:29.828Z,-78
2019-03-03T19:56:57.623Z,-75
2019-03-03T19:59:26.853Z,-76
2019-03-03T20:01:54.890Z,-75
2019-03-03T20:04:22.795Z,-76
2019-03-03T20:06:50.610Z,-77
2019-03-03T20:09:19.323Z,-78
2019-03-03T20:11:47.898Z,-75
2019-03-03T20:14:15.906Z,-75
2019-03-03T20:16:43.665Z,-77
2019-03-03T20:19:11.486Z,-75
2019-03-03T20:21:39.889Z,-75
2019-03-03T20:24:07.838Z,-75
2019-03-03T20:26:35.672Z,-76
2019-03-03T20:29:03.466Z,-76
2019-03-03T20:31:31.315Z,-77
2019-03-03T20:33:59.119Z,-76
2019-03-03T20:36:28.153Z,-76
2019-03-03T20:38:56.006Z,-77
2019-03-03T20:41:23.861Z,-76
2019-03-03T20:43:51.917Z,-78
2019-03-03T20:46:20.216Z,-78
2019-03-03T20:48:48.022Z,-77
2019-03-03T20:51:15.787Z,-76
2019-03-03T20:53:43.576Z,-78
2019-03-03T20:56:11.673Z,-79
2019-03-03T20:58:39.471Z,-76
2019-03-03T21:01:07.363Z,-78
2019-03-03T21:03:35.143Z,-76
2019-03-03T21:06:02.943Z,-78
2019-03-03T21:08:30.705Z,-76
2019-03-03T21:10:58.487Z,-77
2019-03-03T21:13:26.258Z,-79
2019-03-03T21:15:54.037Z,-78
2019-03-03T21:18:22.385Z,-77
2019-03-03T21:20:50.129Z,-76
2019-03-03T21:23:17.906Z,-77
2019-03-03T21:25:45.677Z,-78
2019-03-03T21:28:13.602Z,-77
2019-03-03T21:30:41.801Z,-76
2019-03-03T21:33:09.607Z,-76
2019-03-03T21:35:37.394Z,-77
2019-03-03T21:38:05.440Z,-77
2019-03-03T21:40:33.307Z,-78
2019-03-03T21:43:01.074Z,-78
2019-03-03T21:45:28.962Z,-76
2019-03-03T21:47:57.139Z,-74
2019-03-03T21:50:24.961Z,-75
2019-03-03T21:52:52.779Z,-77
2019-03-03T21:55:20.567Z,-76
2019-03-03T21:57:48.381Z,-78
2019-03-03T22:00:29.392Z,-75
2019-03-03T22:02:57.310Z,-76
2019-03-03T22:05:25.122Z,-77
2019-03-03T22:07:52.914Z,-76
2019-03-03T22:10:28.381Z,-77
2019-03-03T22:12:57.768Z,-75
2019-03-03T22:15:25.552Z,-77
2019-03-03T22:17:53.371Z,-75
2019-03-03T22:20:21.206Z,-77
2019-03-03T22:22:49.122Z,-76
2019-03-03T22:25:16.949Z,-76
2019-03-03T22:27:44.754Z,-76
2019-03-03T22:30:12.824Z,-76
2019-03-03T22:32:41.415Z,-75
2019-03-03T22:35:09.206Z,-77
2019-03-03T22:37:37.019Z,-79
2019-03-03T22:40:06.851Z,-77
2019-03-03T22:42:34.636Z,-78
2019-03-03T22:45:02.455Z,-75
2019-03-03T22:47:30.258Z,-74
2019-03-03T22:49:58.013Z,-77
2019-03-03T22:52:25.796Z,-78
2019-03-03T22:54:53.576Z,-78
2019-03-03T22:57:21.361Z,-78
2019-03-03T22:59:49.117Z,-77
2019-03-03T23:02:20.192Z,-75
2019-03-03T23:05:13.939Z,-76
2019-03-03T23:08:01.693Z,-77
2019-03-03T23:11:05.385Z,-73
2019-03-03T23:14:09.963Z,-77
2019-03-03T23:17:25.137Z,-75
2019-03-03T23:21:13.487Z,-75
2019-03-03T23:24:11.521Z,-76
2019-03-03T23:26:39.295Z,-76
2019-03-03T23:29:07.055Z,-77
2019-03-03T23:31:34.829Z,-77
2019-03-03T23:34:02.593Z,-77
2019-03-03T23:36:30.328Z,-78
2019-03-03T23:38:58.083Z,-77
2019-03-03T23:41:25.822Z,-76
2019-03-03T23:43:53.572Z,-80
2019-03-03T23:46:21.334Z,-78
2019-03-03T23:48:49.132Z,-79
2019-03-03T23:51:16.971Z,-80
2019-03-03T23:53:44.723Z,-78
2019-03-03T23:56:12.477Z,-78
2019-03-03T23:58:40.265Z,-80
